Архив погоды в Проливе Санникова

Метеограмма Пролив Санникова
Понедельник, 24 Июня
Время местн. Темп Ветер Видим Явления Облачность нижн/средн/верх Атм. давл. Влжн Точка росы ВНГО R Сост. почвы Tg s
Напр Скр Прв ур.ст ур.м изм
23:00 +7.7° В 6 - 20 км - переменная облачность 763 765 +0.2 79% +4.3° более 2.5 км 0 - - -
20:00 +12.6° В 5 - 20 км - облачно с прояснениями 763 765 +0.2 70% +7.3° более 2.5 км - - - -
17:00 +12.4° В 4 - 20 км - облачно с прояснениями 763 764 0 70% +7° более 2.5 км - - - -
14:00 +10.6° В,С-В 4 - 20 км - переменная облачность 763 764 -0.2 75% +6.3° более 2.5 км - - - -
11:00 +6.6° В 5 - 20 км - переменная облачность 763 764 +0.3 78% +3° более 2.5 км 0 Влажная (без луж) - -
08:00 +2.5° В,С-В 6 - 20 км - переменная облачность 763 764 +0.1 84% +0.1° более 2.5 км - - - -
05:00 -0.6° В 5 - 4 км дымка переменная облачность 763 764 0 94% -1.5° 600 м - - - -
02:00 -0.4° В 7 11 4 км дымка преимущественно облачно 763 764 0 92% -1.6° 600 м - - - -
Воскресенье, 23 Июня
Время местн. Темп Ветер Видим Явления Облачность нижн/средн/верх Атм. давл. Влжн Точка росы ВНГО R Сост. почвы Tg s
Напр Скр Прв ур.ст ур.м изм
23:00 +0.4° В 7 11 4 км - облачно с прояснениями 763 764 +0.2 92% -0.7° 600 м 0 - - -
20:00 +2.6° В 7 11 20 км - переменная облачность 762 764 +0.4 86% +0.5° 600 м - - - -
17:00 +4.7° В 6 10 20 км - переменная облачность 762 763 -0.2 79% +1.4° более 2.5 км - - - -
14:00 +5.9° В 6 10 20 км - переменная облачность 762 764 +0.2 74% +1.7° более 2.5 км - - - -
11:00 +5° В 7 12 20 км - переменная облачность 762 763 -0.2 79% +1.7° более 2.5 км 0 Влажная (без луж) +4° -
08:00 +3.1° В 8 14 20 км - переменная облачность 762 764 -0.3 81% +0.2° более 2.5 км - - - -
05:00 +1.9° В 9 14 20 км - переменная облачность 763 764 -0.5 83% -0.6° более 2.5 км - - - -
02:00 +2.2° В 7 11 20 км - облачно с прояснениями 763 764 0 82% -0.5° 600 м - - - -
Суббота, 22 Июня
Время местн. Темп Ветер Видим Явления Облачность нижн/средн/верх Атм. давл. Влжн Точка росы ВНГО R Сост. почвы Tg s
Напр Скр Прв ур.ст ур.м изм
23:00 +2.8° В 8 13 20 км - облачно с прояснениями 763 764 +0.1 82% +0.1° 600 м 0 - - -
20:00 +4.4° В 10 14 20 км - облачно с прояснениями 763 764 -0.2 87% +2.4° 600 м - - - -
17:00 +4.8° В 9 13 20 км - облачно с прояснениями 763 764 -0.5 81% +1.8° более 2.5 км - - - -
14:00 +4.4° В 9 14 20 км - преимущественно облачно 764 765 -0.7 79% +1.1° 600 м - - - -
08:00 +2.2° В 9 13 20 км - преимущественно облачно 765 766 -0.6 85% 600 м - - - -
05:00 +1.1° В 9 14 20 км - преимущественно облачно 765 767 -0.2 90% -0.3° 600 м - - - -
02:00 +2.2° В 9 13 20 км - преимущественно облачно 765 767 -0.4 89% +0.6° 600 м - - - -
Пятница, 21 Июня
Время местн. Темп Ветер Видим Явления Облачность нижн/средн/верх Атм. давл. Влжн Точка росы ВНГО R Сост. почвы Tg s
Напр Скр Прв ур.ст ур.м изм
23:00 +3.3° В 7 11 20 км - облачно с прояснениями 766 767 -0.2 88% +1.5° 600 м 0 - - -
20:00 +5.4° В 8 12 20 км - облачно с прояснениями 766 767 -0.2 84% +3° 600 м - - - -
17:00 +6° В 8 11 20 км - облачно с прояснениями 766 767 -0.3 85% +3.6° 600 м - - - -